M I D A S
Marine Information and Data Acquisition System
Tripno 1855 of the Zeeleeuw from 2010-04-06 09:10:00 to 2010-04-06 20:05:00
Back to CruiseResearch ActivitiesStationsMapUnderway DataData graphs

EquipmentUnitsComment
TimeDGPSUTC
LatitudeDGPSDM.mWGS84
LongitudeDGPSDM.mWGS84
HeadingGyrodeg 
SOGDGPSknotsSpeed over ground
COGDGPSdegCourse over ground
DepthEcho soundermeters200 kHz
Missing or incorrect values are displayed as -999
Navigation data collected by the RV Zeeleeuw from 2010-04-06 09:10:00 to 2010-04-06 20:05:00
Time Latitude Longitude Heading SOG COG Depth
2010-04-06 09:12:10 51°32.406 2°55.514 132.6 1.69 119 -999
2010-04-06 09:14:10 51°32.362 2°55.523 199.6 1.6 214 -999
2010-04-06 09:16:10 51°32.348 2°55.439 247.8 1.5 274 -999
2010-04-06 09:18:10 51°32.355 2°55.377 239 1 288 -999
2010-04-06 09:20:10 51°32.367 2°55.334 231.5 1 277 -999
2010-04-06 09:22:10 51°32.325 2°55.328 139.9 1.8 133 -999
2010-04-06 09:24:10 51°32.421 2°55.382 345.6 6.9 338 -999
2010-04-06 09:26:10 51°32.726 2°55.006 317 13.9 314 -999
2010-04-06 09:28:10 51°33.148 2°54.934 29.6 13.4 31 -999
2010-04-06 09:30:10 51°33.277 2°55.43 104.2 7.79 106 -999
2010-04-06 09:32:10 51°33.214 2°55.667 119 3.2 115 -999
2010-04-06 09:34:10 51°33.201 2°55.776 104.2 1.5 91 -999
2010-04-06 09:36:10 51°33.207 2°55.824 105 0.69 68 -999
2010-04-06 09:38:10 51°33.217 2°55.837 110.7 0.4 10 -999
2010-04-06 09:40:10 51°33.232 2°55.83 110.7 0.5 337 -999
2010-04-06 09:42:10 51°33.25 2°55.814 93 0.69 327 -999
2010-04-06 09:44:10 51°33.269 2°55.791 71.7 0.69 322 -999
2010-04-06 09:46:10 51°33.288 2°55.767 63.6 0.8 323 -999
2010-04-06 09:48:10 51°33.307 2°55.746 64 0.59 327 -999
2010-04-06 09:50:10 51°33.325 2°55.73 71.9 0.69 332 -999
2010-04-06 09:52:10 51°33.341 2°55.716 76.4 0.59 330 -999
2010-04-06 09:54:10 51°33.358 2°55.699 77.4 0.59 324 -999
2010-04-06 09:56:10 51°33.373 2°55.682 82.5 0.59 329 -999
2010-04-06 09:58:10 51°33.389 2°55.663 86.5 0.59 317 -999
2010-04-06 10:00:10 51°33.404 2°55.641 88.5 0.59 313 -999
2010-04-06 10:02:10 51°33.419 2°55.617 79 0.69 316 -999
2010-04-06 10:04:10 51°33.435 2°55.592 77.7 0.59 320 -999
2010-04-06 10:06:10 51°33.462 2°55.603 55.7 2.2 39 -999
2010-04-06 10:08:10 51°33.552 2°55.479 295 4.5 293 -999
2010-04-06 10:10:10 51°33.58 2°55.278 273.1 3.2 276 -999
2010-04-06 10:12:10 51°33.645 2°55.148 357 4 353 -999
2010-04-06 10:14:10 51°33.662 2°55.302 122 4.2 123 -999
2010-04-06 10:16:10 51°33.562 2°55.517 129.1 5.29 130 -999
2010-04-06 10:18:10 51°33.443 2°55.731 129.3 5.5 132 -999
2010-04-06 10:20:10 51°33.347 2°55.892 130.1 3 135 -999
2010-04-06 10:22:10 51°33.295 2°55.977 127.4 1.89 133 -999
2010-04-06 10:24:10 51°33.257 2°56.036 130.4 1.39 139 -999
2010-04-06 10:26:10 51°33.223 2°56.078 129.5 1.19 142 -999
2010-04-06 10:28:10 51°33.188 2°56.112 132.8 1.3 153 -999
2010-04-06 10:30:10 51°33.152 2°56.147 128 1.19 146 -999
2010-04-06 10:32:10 51°33.119 2°56.186 127.4 1.3 144 -999
2010-04-06 10:34:10 51°33.084 2°56.226 128 1.3 145 -999
2010-04-06 10:36:10 51°33.049 2°56.272 120.7 1.3 134 -999
2010-04-06 10:38:10 51°33.018 2°56.329 117.7 1.5 127 -999
2010-04-06 10:40:10 51°32.991 2°56.395 117.7 1.5 124 -999
2010-04-06 10:42:10 51°32.961 2°56.46 120.4 1.39 123 -999
2010-04-06 10:44:10 51°32.967 2°56.521 60.5 1.3 49 -999
2010-04-06 10:46:10 51°33.005 2°56.535 24.5 1.1 358 -999
2010-04-06 10:48:10 51°33.031 2°56.533 39.3 0.59 352 -999
2010-04-06 10:50:10 51°33.045 2°56.527 54.7 0.29 334 -999
2010-04-06 10:52:10 51°33.052 2°56.516 66.5 0.29 304 -999
2010-04-06 10:54:10 51°33.057 2°56.5 76.7 0.29 297 -999
2010-04-06 10:56:10 51°33.061 2°56.481 82.9 0.4 284 -999
2010-04-06 10:58:10 51°33.063 2°56.457 83 0.5 276 -999
2010-04-06 11:00:10 51°33.065 2°56.429 83.5 0.59 271 -999
2010-04-06 11:02:10 51°33.066 2°56.396 77.7 0.59 269 -999
2010-04-06 11:04:10 51°33.065 2°56.359 71.9 0.69 270 -999
2010-04-06 11:06:10 51°33.063 2°56.322 68 0.8 269 -999
2010-04-06 11:08:10 51°33.06 2°56.282 67.2 0.8 265 -999
2010-04-06 11:10:10 51°33.057 2°56.24 66.7 0.8 262 -999
2010-04-06 11:12:10 51°33.052 2°56.199 66 0.8 263 -999
2010-04-06 11:14:10 51°33.048 2°56.156 64.5 0.8 251 -999
2010-04-06 11:16:10 51°33.041 2°56.112 64 0.9 252 -999
2010-04-06 11:18:10 51°33.033 2°56.067 65.9 0.9 256 -999
2010-04-06 11:20:10 51°33.025 2°56.021 67.2 0.9 255 -999
2010-04-06 11:22:10 51°33.017 2°55.974 68.5 0.9 258 -999
2010-04-06 11:24:10 51°33.01 2°55.927 69 0.9 257 -999
2010-04-06 11:26:10 51°33.03 2°56.013 71 5.59 72 -999
2010-04-06 11:28:10 51°33.146 2°56.265 42.8 5.29 39 -999
2010-04-06 11:30:10 51°33.132 2°56.417 143.5 3.7 156 -999
2010-04-06 11:32:10 51°33.055 2°56.267 281.8 3.7 271 -999
2010-04-06 11:34:10 51°33.076 2°56.055 306.6 3.7 294 -999
2010-04-06 11:36:10 51°33.149 2°56.045 39.3 2.79 32 -999
2010-04-06 11:38:10 51°33.26 2°56.141 28 4.2 19 -999
2010-04-06 11:40:10 51°33.352 2°55.966 292.3 6.2 283 -999
2010-04-06 11:42:10 51°33.375 2°55.418 261.8 11.4 258 -999
2010-04-06 11:44:10 51°33.119 2°54.996 208.8 11.3 208 -999
2010-04-06 11:46:10 51°32.878 2°55.224 125.2 7.5 131 -999
2010-04-06 11:48:10 51°32.768 2°55.403 106 2.7 122 -999
2010-04-06 11:50:10 51°32.749 2°55.391 51.1 0.8 233 -999
2010-04-06 11:52:10 51°32.739 2°55.353 37.5 0.69 256 -999
2010-04-06 11:54:10 51°32.731 2°55.322 54.6 0.59 243 -999
2010-04-06 11:56:10 51°32.717 2°55.289 67.2 0.9 234 -999
2010-04-06 11:58:10 51°32.703 2°55.255 79.9 0.69 238 -999
2010-04-06 13:00:10 51°31.949 2°53.329 239.1 15 236 -999
2010-04-06 13:02:10 51°31.653 2°52.688 232.6 15 232 -999
2010-04-06 13:04:10 51°31.327 2°52.087 227.4 15 226 -999
2010-04-06 13:06:10 51°30.987 2°51.501 227.8 15 228 -999
2010-04-06 13:08:10 51°30.647 2°50.915 228.3 14.9 227 -999
2010-04-06 13:10:10 51°30.308 2°50.335 228 14.9 227 -999
2010-04-06 13:12:10 51°29.956 2°49.78 222.8 14.8 222 -999
2010-04-06 13:14:10 51°29.594 2°49.246 223 14.8 223 -999
2010-04-06 13:16:10 51°29.234 2°48.706 223.3 14.8 224 -999
2010-04-06 13:18:10 51°28.877 2°48.16 223.6 14.9 224 -999
2010-04-06 13:20:10 51°28.521 2°47.609 223.5 14.8 224 -999
2010-04-06 13:22:10 51°28.171 2°47.061 223 14.59 225 -999
2010-04-06 13:24:10 51°27.825 2°46.512 223.1 14.59 225 -999
2010-04-06 13:26:10 51°27.471 2°45.979 219 14.4 216 -999
2010-04-06 13:28:10 51°27.035 2°45.658 203.5 14.5 207 -999
2010-04-06 13:30:10 51°26.61 2°45.285 206.9 14.59 209 -999
2010-04-06 13:32:10 51°26.187 2°44.901 206.9 14.69 210 -999
2010-04-06 13:34:10 51°25.763 2°44.519 207.1 14.59 209 -999
2010-04-06 13:36:10 51°25.312 2°44.232 194.8 14.59 198 -999
2010-04-06 13:38:10 51°25.029 2°44.086 190.5 6.09 195 -999
2010-04-06 13:40:10 51°24.885 2°44.093 155.9 3.7 172 -999
2010-04-06 13:42:10 51°24.768 2°44.106 162.1 3.5 178 -999
2010-04-06 13:44:10 51°24.663 2°44.095 160.5 2.89 185 -999
2010-04-06 13:46:10 51°24.576 2°44.079 159.8 2.5 187 -999
2010-04-06 13:48:10 51°24.477 2°44.07 159.5 3.5 179 -999
2010-04-06 13:50:10 51°24.353 2°44.068 179.4 4.79 198 -999
2010-04-06 13:52:10 51°24.395 2°43.804 341.3 5.59 336 -999
2010-04-06 13:54:10 51°24.569 2°43.76 355 4.5 345 -999
2010-04-06 13:56:10 51°24.662 2°43.73 354.1 2.2 330 -999
2010-04-06 13:58:10 51°24.704 2°43.656 333.8 1.8 301 -999
2010-04-06 14:00:10 51°24.759 2°43.635 45.6 1.89 43 -999
2010-04-06 14:02:10 51°24.735 2°43.719 122.5 1.89 143 -999
2010-04-06 14:04:10 51°24.683 2°43.734 151 0.8 212 -999
2010-04-06 14:06:10 51°24.661 2°43.715 150.1 0.69 212 -999
2010-04-06 14:08:10 51°24.649 2°43.689 138 0.59 245 -999
2010-04-06 14:10:10 51°24.648 2°43.652 110.9 0.69 274 -999
2010-04-06 14:12:10 51°24.648 2°43.62 70.5 0.2 51 -999
2010-04-06 14:14:10 51°24.659 2°43.671 70.4 0.9 75 -999
2010-04-06 14:16:10 51°24.66 2°43.667 61.2 0.2 334 -999
2010-04-06 14:18:10 51°24.665 2°43.679 65.5 0.29 63 -999
2010-04-06 14:20:10 51°24.67 2°43.69 69.7 0.29 73 -999
2010-04-06 14:22:10 51°24.669 2°43.686 78.2 0.2 253 -999
2010-04-06 14:24:10 51°24.664 2°43.666 87.9 0.5 249 -999
2010-04-06 14:26:10 51°24.669 2°43.648 67.7 1 62 -999
2010-04-06 14:28:10 51°24.674 2°43.688 80.9 0.5 252 -999
2010-04-06 14:30:10 51°24.676 2°43.688 61.2 0.5 53 -999
2010-04-06 14:32:10 51°24.679 2°43.715 75.5 0.2 85 -999
2010-04-06 14:34:10 51°24.677 2°43.716 76.4 0.2 237 -999
2010-04-06 14:36:10 51°24.671 2°43.702 82.2 0.4 245 -999
2010-04-06 14:38:10 51°24.666 2°43.677 89.5 0.5 257 -999
2010-04-06 14:40:10 51°24.666 2°43.674 76.2 0.5 78 -999
2010-04-06 14:42:10 51°24.659 2°43.643 76.5 2.5 256 -999
2010-04-06 14:44:10 51°24.684 2°43.595 352.5 2 333 -999
2010-04-06 14:46:10 51°24.727 2°43.509 311.6 2.2 293 -999
2010-04-06 14:48:10 51°24.734 2°43.389 274.8 2.29 264 -999
2010-04-06 14:50:10 51°24.715 2°43.275 253.5 2.39 253 -999
2010-04-06 14:52:10 51°24.764 2°43.171 4.2 2.6 357 -999
2010-04-06 14:54:10 51°24.788 2°43.327 94.2 5.2 97 -999
2010-04-06 14:56:10 51°24.747 2°43.582 98 3.7 100 -999
2010-04-06 14:58:10 51°24.753 2°43.703 70.5 1.69 74 -999
2010-04-06 15:00:10 51°24.77 2°43.764 63.5 1 64 -999
2010-04-06 15:02:10 51°24.78 2°43.797 65.7 0.59 69 -999
2010-04-06 15:04:10 51°24.783 2°43.812 76.2 0.2 78 -999
2010-04-06 15:06:10 51°24.784 2°43.818 84.7 0.2 100 -999
2010-04-06 15:08:10 51°24.728 2°43.869 175 3 183 -999
2010-04-06 15:10:10 51°24.666 2°43.831 198.4 1.6 207 -999
2010-04-06 15:12:10 51°24.633 2°43.799 191.6 0.9 214 -999
2010-04-06 15:14:10 51°24.597 2°43.757 219.5 2.29 225 -999
2010-04-06 15:16:10 51°24.591 2°43.607 275.8 3.39 273 -999
2010-04-06 15:18:10 51°24.578 2°43.446 255.5 2.7 255 -999
2010-04-06 15:20:10 51°24.552 2°43.333 249 2.1 251 -999
2010-04-06 15:22:10 51°24.603 2°43.233 356.3 3.39 356 -999
2010-04-06 15:24:10 51°24.7 2°43.359 44.7 4.09 44 -999
2010-04-06 15:26:10 51°24.771 2°43.476 53.6 2.39 52 -999
2010-04-06 15:28:10 51°24.8 2°43.557 67.5 1.39 67 -999
2010-04-06 15:30:10 51°24.813 2°43.618 78.5 1.3 79 -999
2010-04-06 15:32:10 51°24.811 2°43.69 106.7 1.3 106 -999
2010-04-06 15:34:10 51°24.795 2°43.748 126 1 118 -999
2010-04-06 15:36:10 51°24.785 2°43.779 126.7 0.5 107 -999
2010-04-06 15:38:10 51°24.785 2°43.8 124 0.29 74 -999
2010-04-06 15:40:10 51°24.789 2°43.813 125.2 0.29 47 -999
2010-04-06 15:42:10 51°24.798 2°43.821 116.2 0.4 20 -999
2010-04-06 15:44:10 51°24.812 2°43.827 97 0.4 8 -999
2010-04-06 15:46:10 51°24.824 2°43.851 97.7 1.19 82 -999
2010-04-06 15:48:10 51°24.783 2°43.932 148.5 3 143 -999
2010-04-06 15:50:10 51°24.671 2°44.072 138.8 3.5 134 -999
2010-04-06 15:52:10 51°24.594 2°44.095 214.9 2.6 219 -999
2010-04-06 15:54:10 51°24.616 2°43.936 292.6 3.79 298 -999
2010-04-06 15:56:10 51°24.696 2°43.787 314.8 3.2 318 -999
2010-04-06 15:58:10 51°24.775 2°43.708 329.1 2.6 335 -999
2010-04-06 16:00:10 51°24.853 2°43.67 343.1 2.39 348 -999
2010-04-06 16:02:10 51°24.933 2°43.731 63.8 3.5 63 -999
2010-04-06 16:04:10 51°24.852 2°43.836 181 4.59 180 -999
2010-04-06 16:06:10 51°24.712 2°43.8 197.8 3.1 196 -999
2010-04-06 16:08:10 51°24.699 2°43.8 219.8 1 34 -999
2010-04-06 16:10:10 51°24.694 2°43.769 229.8 1.69 240 -999
2010-04-06 16:12:10 51°24.699 2°43.757 243.3 0.59 18 -999
2010-04-06 16:14:10 51°24.721 2°43.773 260.6 0.69 20 -999
2010-04-06 16:16:10 51°24.732 2°43.746 242.5 0.69 279 -999
2010-04-06 16:18:10 51°24.726 2°43.697 234.5 1 256 -999
2010-04-06 16:20:10 51°24.762 2°43.734 238 1.69 43 -999
2010-04-06 16:22:10 51°24.755 2°43.726 192.8 0.59 184 -999
2010-04-06 16:24:10 51°24.729 2°43.748 173.5 1.1 151 -999
2010-04-06 16:26:10 51°24.695 2°43.76 202.1 0.9 184 -999
2010-04-06 16:28:10 51°24.673 2°43.748 207.6 0.5 199 -999
2010-04-06 16:30:10 51°24.681 2°43.759 209 1 29 -999
2010-04-06 16:32:10 51°24.711 2°43.783 229 1 25 -999
2010-04-06 16:34:10 51°24.711 2°43.772 209.1 2.2 199 -999
2010-04-06 16:36:10 51°24.615 2°44.075 115 12.09 108 -999
2010-04-06 16:38:10 51°24.391 2°44.708 130 13.69 126 -999
2010-04-06 16:40:10 51°24.105 2°45.269 135.8 13.59 132 -999
2010-04-06 16:42:10 51°23.804 2°45.812 136.1 13.69 132 -999
2010-04-06 16:44:10 51°23.506 2°46.358 135 13.59 131 -999
2010-04-06 16:46:10 51°23.113 2°46.64 168.6 13 166 -999
2010-04-06 16:48:10 51°22.692 2°46.71 177.3 12.69 174 -999
2010-04-06 16:50:10 51°22.272 2°46.773 178 12.69 175 -999
2010-04-06 16:52:10 51°21.863 2°46.967 161.4 12.9 156 -999
2010-04-06 16:54:10 51°21.478 2°47.287 152.9 13.19 147 -999
2010-04-06 16:56:10 51°21.129 2°47.72 144.1 13.3 139 -999
2010-04-06 16:58:10 51°20.795 2°48.171 144.8 13.09 139 -999
2010-04-06 17:00:10 51°20.455 2°48.619 145.5 13.09 141 -999
2010-04-06 17:02:10 51°20.118 2°49.059 145.1 13.19 141 -999
2010-04-06 17:04:10 51°19.776 2°49.501 145.1 13.19 141 -999
2010-04-06 17:06:10 51°19.429 2°49.943 145.9 13.3 141 -999
2010-04-06 17:08:10 51°19.08 2°50.386 145.9 13.3 141 -999
2010-04-06 17:10:10 51°18.739 2°50.822 145.1 13.09 142 -999
2010-04-06 17:12:10 51°18.386 2°51.24 150.8 13.19 147 -999
2010-04-06 17:14:10 51°18.016 2°51.624 151 13.19 147 -999
2010-04-06 17:16:10 51°17.645 2°52.009 150.3 13.3 147 -999
2010-04-06 17:18:10 51°17.277 2°52.395 150.3 13.3 146 -999
2010-04-06 17:20:10 51°16.899 2°52.745 154.4 13 152 -999
2010-04-06 17:22:10 51°16.512 2°53.074 157.6 13.09 152 -999
2010-04-06 17:24:10 51°16.125 2°53.375 159.6 13 154 -999
2010-04-06 17:26:10 51°15.734 2°53.668 157.5 13.09 149 -999
2010-04-06 17:28:10 51°15.389 2°54.112 146 13.4 141 -999
2010-04-06 17:30:10 51°15.06 2°54.502 148.6 11.5 146 -999
2010-04-06 17:32:10 51°14.737 2°54.861 150.1 13.09 146 -999
2010-04-06 17:34:10 51°14.347 2°55.192 151.8 13.3 151 -999
2010-04-06 17:36:10 51°14.085 2°55.44 155.6 5.79 156 -999
2010-04-06 17:38:10 51°13.867 2°55.596 155.1 7.79 156 -999
2010-04-06 17:40:10 51°13.72 2°55.734 134.4 4 133 -999
2010-04-06 17:42:10 51°13.668 2°55.93 107 3.5 108 -999